sensor_id;sensor_type;location;lat;lon;timestamp;P1;durP1;ratioP1;P2;durP2;ratioP2
24897;SDS011;12957;49.434;8.684;2023-09-19T00:00:40;1.95;;;1.02;;
24897;SDS011;12957;49.434;8.684;2023-09-19T00:03:06;1.50;;;1.23;;
24897;SDS011;12957;49.434;8.684;2023-09-19T00:05:35;1.25;;;1.20;;
24897;SDS011;12957;49.434;8.684;2023-09-19T00:08:01;5.07;;;1.20;;
24897;SDS011;12957;49.434;8.684;2023-09-19T00:10:31;1.38;;;1.25;;
24897;SDS011;12957;49.434;8.684;2023-09-19T00:13:00;3.00;;;1.08;;
24897;SDS011;12957;49.434;8.684;2023-09-19T00:15:30;3.28;;;1.08;;
24897;SDS011;12957;49.434;8.684;2023-09-19T00:17:56;3.97;;;1.20;;
24897;SDS011;12957;49.434;8.684;2023-09-19T00:20:21;2.85;;;1.30;;
24897;SDS011;12957;49.434;8.684;2023-09-19T00:22:51;3.85;;;1.30;;
24897;SDS011;12957;49.434;8.684;2023-09-19T00:25:19;3.70;;;1.15;;
24897;SDS011;12957;49.434;8.684;2023-09-19T00:27:45;2.80;;;1.30;;
24897;SDS011;12957;49.434;8.684;2023-09-19T00:30:14;2.83;;;1.10;;
24897;SDS011;12957;49.434;8.684;2023-09-19T00:32:47;2.17;;;1.27;;
24897;SDS011;12957;49.434;8.684;2023-09-19T00:35:13;2.38;;;1.13;;
24897;SDS011;12957;49.434;8.684;2023-09-19T00:37:42;4.22;;;1.30;;
24897;SDS011;12957;49.434;8.684;2023-09-19T00:40:08;1.67;;;1.13;;
24897;SDS011;12957;49.434;8.684;2023-09-19T00:42:38;3.97;;;1.20;;
24897;SDS011;12957;49.434;8.684;2023-09-19T00:45:04;1.40;;;1.30;;
24897;SDS011;12957;49.434;8.684;2023-09-19T00:47:31;7.43;;;1.40;;
24897;SDS011;12957;49.434;8.684;2023-09-19T00:49:56;1.95;;;1.67;;
24897;SDS011;12957;49.434;8.684;2023-09-19T00:52:22;3.53;;;1.55;;
24897;SDS011;12957;49.434;8.684;2023-09-19T00:54:48;2.25;;;1.40;;
24897;SDS011;12957;49.434;8.684;2023-09-19T00:57:14;1.92;;;1.40;;
24897;SDS011;12957;49.434;8.684;2023-09-19T00:59:44;2.85;;;1.25;;
24897;SDS011;12957;49.434;8.684;2023-09-19T01:02:09;2.13;;;1.30;;
24897;SDS011;12957;49.434;8.684;2023-09-19T01:04:36;1.67;;;1.50;;
24897;SDS011;12957;49.434;8.684;2023-09-19T01:07:02;3.25;;;1.48;;
24897;SDS011;12957;49.434;8.684;2023-09-19T01:09:28;2.10;;;1.20;;
24897;SDS011;12957;49.434;8.684;2023-09-19T01:11:56;1.45;;;1.20;;
24897;SDS011;12957;49.434;8.684;2023-09-19T01:17:31;4.43;;;1.77;;
24897;SDS011;12957;49.434;8.684;2023-09-19T01:22:37;2.47;;;1.30;;
24897;SDS011;12957;49.434;8.684;2023-09-19T01:27:50;4.32;;;1.48;;
24897;SDS011;12957;49.434;8.684;2023-09-19T01:30:24;2.78;;;1.35;;
24897;SDS011;12957;49.434;8.684;2023-09-19T01:32:52;1.50;;;1.40;;
24897;SDS011;12957;49.434;8.684;2023-09-19T01:35:18;4.30;;;1.45;;
24897;SDS011;12957;49.434;8.684;2023-09-19T01:37:44;3.10;;;1.35;;
24897;SDS011;12957;49.434;8.684;2023-09-19T01:40:10;1.75;;;1.33;;
24897;SDS011;12957;49.434;8.684;2023-09-19T01:42:45;3.40;;;1.42;;
24897;SDS011;12957;49.434;8.684;2023-09-19T01:48:30;4.43;;;1.58;;
24897;SDS011;12957;49.434;8.684;2023-09-19T01:51:05;2.58;;;1.30;;
24897;SDS011;12957;49.434;8.684;2023-09-19T01:56:21;1.55;;;1.30;;
24897;SDS011;12957;49.434;8.684;2023-09-19T01:58:49;1.85;;;1.20;;
24897;SDS011;12957;49.434;8.684;2023-09-19T02:01:22;2.83;;;1.25;;
24897;SDS011;12957;49.434;8.684;2023-09-19T02:03:49;3.05;;;1.17;;
24897;SDS011;12957;49.434;8.684;2023-09-19T02:06:15;1.85;;;1.20;;
24897;SDS011;12957;49.434;8.684;2023-09-19T02:08:42;1.20;;;1.20;;
24897;SDS011;12957;49.434;8.684;2023-09-19T02:11:08;5.05;;;1.38;;
24897;SDS011;12957;49.434;8.684;2023-09-19T02:13:33;2.97;;;1.33;;
24897;SDS011;12957;49.434;8.684;2023-09-19T02:15:59;3.33;;;1.40;;
24897;SDS011;12957;49.434;8.684;2023-09-19T02:18:25;2.33;;;1.30;;
24897;SDS011;12957;49.434;8.684;2023-09-19T02:20:52;4.20;;;1.40;;
24897;SDS011;12957;49.434;8.684;2023-09-19T02:23:18;2.80;;;1.27;;
24897;SDS011;12957;49.434;8.684;2023-09-19T02:25:51;5.45;;;1.50;;
24897;SDS011;12957;49.434;8.684;2023-09-19T02:28:19;2.55;;;1.35;;
24897;SDS011;12957;49.434;8.684;2023-09-19T02:30:47;5.20;;;1.45;;
24897;SDS011;12957;49.434;8.684;2023-09-19T02:33:14;5.75;;;1.52;;
24897;SDS011;12957;49.434;8.684;2023-09-19T02:35:39;5.97;;;1.58;;
24897;SDS011;12957;49.434;8.684;2023-09-19T02:38:05;1.98;;;1.20;;
24897;SDS011;12957;49.434;8.684;2023-09-19T02:40:32;5.50;;;1.55;;
24897;SDS011;12957;49.434;8.684;2023-09-19T02:43:00;4.18;;;1.40;;
24897;SDS011;12957;49.434;8.684;2023-09-19T02:45:27;1.70;;;1.17;;
24897;SDS011;12957;49.434;8.684;2023-09-19T02:47:52;3.33;;;1.50;;
24897;SDS011;12957;49.434;8.684;2023-09-19T02:50:18;4.32;;;1.30;;
24897;SDS011;12957;49.434;8.684;2023-09-19T02:52:44;5.40;;;1.25;;
24897;SDS011;12957;49.434;8.684;2023-09-19T02:55:13;5.93;;;1.83;;
24897;SDS011;12957;49.434;8.684;2023-09-19T02:57:49;2.63;;;1.20;;
24897;SDS011;12957;49.434;8.684;2023-09-19T03:00:16;3.97;;;1.20;;
24897;SDS011;12957;49.434;8.684;2023-09-19T03:02:46;1.50;;;1.40;;
24897;SDS011;12957;49.434;8.684;2023-09-19T03:05:15;3.70;;;1.48;;
24897;SDS011;12957;49.434;8.684;2023-09-19T03:07:41;4.18;;;1.20;;
24897;SDS011;12957;49.434;8.684;2023-09-19T03:10:08;4.10;;;1.65;;
24897;SDS011;12957;49.434;8.684;2023-09-19T03:12:34;3.47;;;1.20;;
24897;SDS011;12957;49.434;8.684;2023-09-19T03:15:00;4.15;;;1.40;;
24897;SDS011;12957;49.434;8.684;2023-09-19T03:17:25;1.58;;;1.48;;
24897;SDS011;12957;49.434;8.684;2023-09-19T03:19:51;1.83;;;1.38;;
24897;SDS011;12957;49.434;8.684;2023-09-19T03:22:16;2.22;;;1.40;;
24897;SDS011;12957;49.434;8.684;2023-09-19T03:24:43;2.53;;;1.50;;
24897;SDS011;12957;49.434;8.684;2023-09-19T03:27:09;2.35;;;1.20;;
24897;SDS011;12957;49.434;8.684;2023-09-19T03:29:35;6.00;;;1.50;;
24897;SDS011;12957;49.434;8.684;2023-09-19T03:32:00;4.63;;;1.65;;
24897;SDS011;12957;49.434;8.684;2023-09-19T03:34:26;2.92;;;1.60;;
24897;SDS011;12957;49.434;8.684;2023-09-19T03:36:52;3.47;;;1.40;;
24897;SDS011;12957;49.434;8.684;2023-09-19T03:39:18;7.68;;;1.63;;
24897;SDS011;12957;49.434;8.684;2023-09-19T03:41:43;3.20;;;1.60;;
24897;SDS011;12957;49.434;8.684;2023-09-19T03:44:10;2.75;;;1.30;;
24897;SDS011;12957;49.434;8.684;2023-09-19T03:46:35;6.10;;;1.90;;
24897;SDS011;12957;49.434;8.684;2023-09-19T03:49:01;1.45;;;1.40;;
24897;SDS011;12957;49.434;8.684;2023-09-19T03:51:26;2.67;;;1.67;;
24897;SDS011;12957;49.434;8.684;2023-09-19T03:53:52;1.67;;;1.50;;
24897;SDS011;12957;49.434;8.684;2023-09-19T03:56:17;2.50;;;1.60;;
24897;SDS011;12957;49.434;8.684;2023-09-19T03:58:43;2.67;;;1.70;;
24897;SDS011;12957;49.434;8.684;2023-09-19T04:01:08;2.47;;;1.70;;
24897;SDS011;12957;49.434;8.684;2023-09-19T04:03:34;3.10;;;1.50;;
24897;SDS011;12957;49.434;8.684;2023-09-19T04:06:10;3.45;;;1.80;;
24897;SDS011;12957;49.434;8.684;2023-09-19T04:08:37;2.88;;;1.70;;
24897;SDS011;12957;49.434;8.684;2023-09-19T04:11:02;1.70;;;1.60;;
24897;SDS011;12957;49.434;8.684;2023-09-19T04:13:28;2.42;;;1.65;;
24897;SDS011;12957;49.434;8.684;2023-09-19T04:15:53;2.33;;;1.48;;
24897;SDS011;12957;49.434;8.684;2023-09-19T04:18:19;4.10;;;1.70;;
24897;SDS011;12957;49.434;8.684;2023-09-19T04:20:51;1.95;;;1.70;;
24897;SDS011;12957;49.434;8.684;2023-09-19T04:23:16;1.83;;;1.65;;
24897;SDS011;12957;49.434;8.684;2023-09-19T04:25:42;2.03;;;1.83;;
24897;SDS011;12957;49.434;8.684;2023-09-19T04:28:08;3.58;;;1.83;;
24897;SDS011;12957;49.434;8.684;2023-09-19T04:30:36;2.70;;;2.15;;
24897;SDS011;12957;49.434;8.684;2023-09-19T04:33:07;5.13;;;2.20;;
24897;SDS011;12957;49.434;8.684;2023-09-19T04:35:33;7.88;;;1.92;;
24897;SDS011;12957;49.434;8.684;2023-09-19T04:37:59;1.92;;;1.70;;
24897;SDS011;12957;49.434;8.684;2023-09-19T04:40:25;2.10;;;1.95;;
24897;SDS011;12957;49.434;8.684;2023-09-19T04:42:54;7.75;;;2.22;;
24897;SDS011;12957;49.434;8.684;2023-09-19T04:45:23;3.88;;;1.90;;
24897;SDS011;12957;49.434;8.684;2023-09-19T04:47:49;6.88;;;2.35;;
24897;SDS011;12957;49.434;8.684;2023-09-19T04:50:15;3.90;;;1.88;;
24897;SDS011;12957;49.434;8.684;2023-09-19T04:52:42;6.70;;;2.42;;
24897;SDS011;12957;49.434;8.684;2023-09-19T04:55:12;5.55;;;1.92;;
24897;SDS011;12957;49.434;8.684;2023-09-19T04:57:48;6.97;;;2.63;;
24897;SDS011;12957;49.434;8.684;2023-09-19T05:00:14;5.10;;;2.15;;
24897;SDS011;12957;49.434;8.684;2023-09-19T05:02:41;3.88;;;2.10;;
24897;SDS011;12957;49.434;8.684;2023-09-19T05:05:08;7.72;;;2.30;;
24897;SDS011;12957;49.434;8.684;2023-09-19T05:07:35;4.43;;;2.15;;
24897;SDS011;12957;49.434;8.684;2023-09-19T05:10:01;3.95;;;2.15;;
24897;SDS011;12957;49.434;8.684;2023-09-19T05:12:31;2.35;;;2.13;;
24897;SDS011;12957;49.434;8.684;2023-09-19T05:14:57;3.58;;;1.90;;
24897;SDS011;12957;49.434;8.684;2023-09-19T05:17:23;6.18;;;2.55;;
24897;SDS011;12957;49.434;8.684;2023-09-19T05:19:49;5.55;;;2.10;;
24897;SDS011;12957;49.434;8.684;2023-09-19T05:22:15;3.72;;;1.92;;
24897;SDS011;12957;49.434;8.684;2023-09-19T05:24:40;6.85;;;2.55;;
24897;SDS011;12957;49.434;8.684;2023-09-19T05:27:06;5.38;;;1.98;;
24897;SDS011;12957;49.434;8.684;2023-09-19T05:29:32;4.00;;;2.13;;
24897;SDS011;12957;49.434;8.684;2023-09-19T05:31:58;9.65;;;2.70;;
24897;SDS011;12957;49.434;8.684;2023-09-19T05:34:24;7.57;;;2.40;;
24897;SDS011;12957;49.434;8.684;2023-09-19T05:36:55;9.75;;;2.25;;
24897;SDS011;12957;49.434;8.684;2023-09-19T05:39:20;7.35;;;2.10;;
24897;SDS011;12957;49.434;8.684;2023-09-19T05:41:46;5.35;;;2.03;;
24897;SDS011;12957;49.434;8.684;2023-09-19T05:44:12;2.00;;;1.77;;
24897;SDS011;12957;49.434;8.684;2023-09-19T05:46:39;4.68;;;1.85;;
24897;SDS011;12957;49.434;8.684;2023-09-19T05:49:04;3.53;;;1.70;;
24897;SDS011;12957;49.434;8.684;2023-09-19T05:51:30;3.20;;;1.98;;
24897;SDS011;12957;49.434;8.684;2023-09-19T05:53:56;2.53;;;1.75;;
24897;SDS011;12957;49.434;8.684;2023-09-19T05:56:21;2.03;;;1.50;;
24897;SDS011;12957;49.434;8.684;2023-09-19T05:58:47;7.25;;;2.00;;
24897;SDS011;12957;49.434;8.684;2023-09-19T06:01:13;5.43;;;1.77;;
24897;SDS011;12957;49.434;8.684;2023-09-19T06:03:38;2.92;;;1.85;;
24897;SDS011;12957;49.434;8.684;2023-09-19T06:06:03;3.05;;;1.67;;
24897;SDS011;12957;49.434;8.684;2023-09-19T06:08:31;7.93;;;2.40;;
24897;SDS011;12957;49.434;8.684;2023-09-19T06:10:59;6.55;;;2.08;;
24897;SDS011;12957;49.434;8.684;2023-09-19T06:13:27;5.78;;;1.73;;
24897;SDS011;12957;49.434;8.684;2023-09-19T06:15:54;6.55;;;2.40;;
24897;SDS011;12957;49.434;8.684;2023-09-19T06:18:21;7.15;;;2.15;;
24897;SDS011;12957;49.434;8.684;2023-09-19T06:20:47;5.88;;;2.30;;
24897;SDS011;12957;49.434;8.684;2023-09-19T06:23:12;4.43;;;2.08;;
24897;SDS011;12957;49.434;8.684;2023-09-19T06:25:38;6.82;;;2.03;;
24897;SDS011;12957;49.434;8.684;2023-09-19T06:28:04;6.28;;;2.00;;
24897;SDS011;12957;49.434;8.684;2023-09-19T06:30:30;5.63;;;2.33;;
24897;SDS011;12957;49.434;8.684;2023-09-19T06:32:56;2.50;;;1.90;;
24897;SDS011;12957;49.434;8.684;2023-09-19T06:35:22;6.78;;;2.05;;
24897;SDS011;12957;49.434;8.684;2023-09-19T06:37:48;4.97;;;2.03;;
24897;SDS011;12957;49.434;8.684;2023-09-19T06:40:14;5.32;;;2.00;;
24897;SDS011;12957;49.434;8.684;2023-09-19T06:42:41;6.38;;;1.90;;
24897;SDS011;12957;49.434;8.684;2023-09-19T06:45:07;5.78;;;2.20;;
24897;SDS011;12957;49.434;8.684;2023-09-19T06:47:33;7.47;;;1.90;;
24897;SDS011;12957;49.434;8.684;2023-09-19T06:49:59;4.13;;;2.00;;
24897;SDS011;12957;49.434;8.684;2023-09-19T06:52:24;5.10;;;2.00;;
24897;SDS011;12957;49.434;8.684;2023-09-19T06:54:52;4.85;;;1.88;;
24897;SDS011;12957;49.434;8.684;2023-09-19T06:57:18;5.28;;;1.65;;
24897;SDS011;12957;49.434;8.684;2023-09-19T06:59:44;5.70;;;2.20;;
24897;SDS011;12957;49.434;8.684;2023-09-19T07:02:10;5.80;;;1.88;;
24897;SDS011;12957;49.434;8.684;2023-09-19T07:04:36;6.72;;;2.17;;
24897;SDS011;12957;49.434;8.684;2023-09-19T07:07:01;3.55;;;1.90;;
24897;SDS011;12957;49.434;8.684;2023-09-19T07:09:27;3.28;;;1.88;;
24897;SDS011;12957;49.434;8.684;2023-09-19T07:11:53;7.28;;;2.03;;
24897;SDS011;12957;49.434;8.684;2023-09-19T07:14:19;6.43;;;2.00;;
24897;SDS011;12957;49.434;8.684;2023-09-19T07:16:44;7.10;;;2.10;;
24897;SDS011;12957;49.434;8.684;2023-09-19T07:19:10;2.45;;;1.70;;
24897;SDS011;12957;49.434;8.684;2023-09-19T07:21:36;5.78;;;1.70;;
24897;SDS011;12957;49.434;8.684;2023-09-19T07:24:03;6.57;;;1.63;;
24897;SDS011;12957;49.434;8.684;2023-09-19T07:26:29;4.20;;;1.80;;
24897;SDS011;12957;49.434;8.684;2023-09-19T07:28:56;4.32;;;1.58;;
24897;SDS011;12957;49.434;8.684;2023-09-19T07:31:22;2.05;;;1.40;;
24897;SDS011;12957;49.434;8.684;2023-09-19T07:33:48;4.80;;;1.50;;
24897;SDS011;12957;49.434;8.684;2023-09-19T07:36:14;4.40;;;1.60;;
24897;SDS011;12957;49.434;8.684;2023-09-19T07:38:40;2.28;;;1.52;;
24897;SDS011;12957;49.434;8.684;2023-09-19T07:41:06;4.15;;;1.60;;
24897;SDS011;12957;49.434;8.684;2023-09-19T07:43:32;4.20;;;1.50;;
24897;SDS011;12957;49.434;8.684;2023-09-19T07:46:02;3.47;;;1.70;;
24897;SDS011;12957;49.434;8.684;2023-09-19T07:48:28;4.30;;;1.48;;
24897;SDS011;12957;49.434;8.684;2023-09-19T07:50:54;2.78;;;1.42;;
24897;SDS011;12957;49.434;8.684;2023-09-19T07:53:20;8.25;;;1.92;;
24897;SDS011;12957;49.434;8.684;2023-09-19T07:55:45;2.50;;;1.40;;
24897;SDS011;12957;49.434;8.684;2023-09-19T07:58:13;3.45;;;1.60;;
24897;SDS011;12957;49.434;8.684;2023-09-19T08:00:40;2.83;;;1.17;;
24897;SDS011;12957;49.434;8.684;2023-09-19T08:03:06;2.30;;;1.30;;
24897;SDS011;12957;49.434;8.684;2023-09-19T08:05:33;4.93;;;1.40;;
24897;SDS011;12957;49.434;8.684;2023-09-19T08:07:59;3.70;;;1.60;;
24897;SDS011;12957;49.434;8.684;2023-09-19T08:10:24;3.53;;;1.60;;
24897;SDS011;12957;49.434;8.684;2023-09-19T08:12:52;3.60;;;1.50;;
24897;SDS011;12957;49.434;8.684;2023-09-19T08:15:23;4.05;;;1.58;;
24897;SDS011;12957;49.434;8.684;2023-09-19T08:17:48;3.00;;;1.30;;
24897;SDS011;12957;49.434;8.684;2023-09-19T08:20:14;10.13;;;1.50;;
24897;SDS011;12957;49.434;8.684;2023-09-19T08:25:15;4.10;;;1.65;;
24897;SDS011;12957;49.434;8.684;2023-09-19T08:27:43;2.72;;;1.30;;
24897;SDS011;12957;49.434;8.684;2023-09-19T08:30:12;2.72;;;1.40;;
24897;SDS011;12957;49.434;8.684;2023-09-19T08:32:39;3.00;;;1.63;;
24897;SDS011;12957;49.434;8.684;2023-09-19T08:35:06;4.15;;;1.38;;
24897;SDS011;12957;49.434;8.684;2023-09-19T08:37:32;3.90;;;1.30;;
24897;SDS011;12957;49.434;8.684;2023-09-19T08:39:57;7.50;;;1.60;;
24897;SDS011;12957;49.434;8.684;2023-09-19T08:42:23;4.05;;;1.52;;
24897;SDS011;12957;49.434;8.684;2023-09-19T08:44:50;4.25;;;1.58;;
24897;SDS011;12957;49.434;8.684;2023-09-19T08:47:16;3.60;;;1.45;;
24897;SDS011;12957;49.434;8.684;2023-09-19T08:50:43;4.43;;;1.52;;
24897;SDS011;12957;49.434;8.684;2023-09-19T08:52:51;2.78;;;1.20;;
24897;SDS011;12957;49.434;8.684;2023-09-19T08:55:19;3.08;;;1.60;;
24897;SDS011;12957;49.434;8.684;2023-09-19T08:57:47;3.63;;;1.55;;
24897;SDS011;12957;49.434;8.684;2023-09-19T09:00:15;2.47;;;1.38;;
24897;SDS011;12957;49.434;8.684;2023-09-19T09:02:43;2.15;;;1.35;;
24897;SDS011;12957;49.434;8.684;2023-09-19T09:05:09;3.75;;;1.50;;
24897;SDS011;12957;49.434;8.684;2023-09-19T09:07:40;4.32;;;1.55;;
24897;SDS011;12957;49.434;8.684;2023-09-19T09:10:06;3.72;;;1.50;;
24897;SDS011;12957;49.434;8.684;2023-09-19T09:12:32;3.83;;;1.27;;
24897;SDS011;12957;49.434;8.684;2023-09-19T09:14:58;5.50;;;1.90;;
24897;SDS011;12957;49.434;8.684;2023-09-19T09:17:26;2.55;;;1.50;;
24897;SDS011;12957;49.434;8.684;2023-09-19T09:19:53;2.25;;;1.05;;
24897;SDS011;12957;49.434;8.684;2023-09-19T09:22:18;2.53;;;1.40;;
24897;SDS011;12957;49.434;8.684;2023-09-19T09:24:58;3.47;;;1.67;;
24897;SDS011;12957;49.434;8.684;2023-09-19T09:27:26;3.38;;;1.40;;
24897;SDS011;12957;49.434;8.684;2023-09-19T09:29:52;3.15;;;1.40;;
24897;SDS011;12957;49.434;8.684;2023-09-19T09:32:20;4.18;;;1.40;;
24897;SDS011;12957;49.434;8.684;2023-09-19T09:34:50;3.90;;;1.58;;
24897;SDS011;12957;49.434;8.684;2023-09-19T09:37:19;2.55;;;1.40;;
24897;SDS011;12957;49.434;8.684;2023-09-19T09:42:28;2.67;;;1.38;;
24897;SDS011;12957;49.434;8.684;2023-09-19T09:47:47;4.22;;;1.45;;
24897;SDS011;12957;49.434;8.684;2023-09-19T09:50:24;2.90;;;1.38;;
24897;SDS011;12957;49.434;8.684;2023-09-19T09:52:54;6.45;;;1.70;;
24897;SDS011;12957;49.434;8.684;2023-09-19T09:55:32;1.50;;;1.40;;
24897;SDS011;12957;49.434;8.684;2023-09-19T09:58:22;4.60;;;1.40;;
24897;SDS011;12957;49.434;8.684;2023-09-19T10:00:53;5.63;;;2.17;;
24897;SDS011;12957;49.434;8.684;2023-09-19T10:03:30;3.17;;;1.55;;
24897;SDS011;12957;49.434;8.684;2023-09-19T10:05:56;2.80;;;1.67;;
24897;SDS011;12957;49.434;8.684;2023-09-19T10:08:23;4.75;;;1.60;;
24897;SDS011;12957;49.434;8.684;2023-09-19T10:10:48;4.35;;;1.67;;
24897;SDS011;12957;49.434;8.684;2023-09-19T10:13:17;2.42;;;1.20;;
24897;SDS011;12957;49.434;8.684;2023-09-19T10:15:50;3.88;;;1.52;;
24897;SDS011;12957;49.434;8.684;2023-09-19T10:18:22;2.67;;;1.42;;
24897;SDS011;12957;49.434;8.684;2023-09-19T10:20:53;3.40;;;1.45;;
24897;SDS011;12957;49.434;8.684;2023-09-19T10:23:20;2.63;;;1.33;;
24897;SDS011;12957;49.434;8.684;2023-09-19T10:25:51;2.35;;;1.40;;
24897;SDS011;12957;49.434;8.684;2023-09-19T10:28:18;1.52;;;1.25;;
24897;SDS011;12957;49.434;8.684;2023-09-19T10:30:47;4.93;;;1.40;;
24897;SDS011;12957;49.434;8.684;2023-09-19T10:33:15;3.42;;;1.50;;
24897;SDS011;12957;49.434;8.684;2023-09-19T10:35:43;5.30;;;1.40;;
24897;SDS011;12957;49.434;8.684;2023-09-19T10:38:10;5.30;;;1.52;;
24897;SDS011;12957;49.434;8.684;2023-09-19T10:40:37;2.28;;;1.42;;
24897;SDS011;12957;49.434;8.684;2023-09-19T10:43:08;3.33;;;1.40;;
24897;SDS011;12957;49.434;8.684;2023-09-19T10:45:37;3.72;;;1.48;;
24897;SDS011;12957;49.434;8.684;2023-09-19T10:48:04;1.40;;;1.27;;
24897;SDS011;12957;49.434;8.684;2023-09-19T10:50:53;2.40;;;1.42;;
24897;SDS011;12957;49.434;8.684;2023-09-19T10:53:24;5.28;;;1.40;;
24897;SDS011;12957;49.434;8.684;2023-09-19T10:55:53;5.25;;;1.63;;
24897;SDS011;12957;49.434;8.684;2023-09-19T10:58:27;7.32;;;1.27;;
24897;SDS011;12957;49.434;8.684;2023-09-19T11:00:54;3.63;;;1.60;;
24897;SDS011;12957;49.434;8.684;2023-09-19T11:03:42;1.98;;;1.23;;
24897;SDS011;12957;49.434;8.684;2023-09-19T11:06:14;4.65;;;1.40;;
24897;SDS011;12957;49.434;8.684;2023-09-19T11:08:57;1.83;;;1.35;;
24897;SDS011;12957;49.434;8.684;2023-09-19T11:11:46;2.95;;;1.40;;
24897;SDS011;12957;49.434;8.684;2023-09-19T11:17:49;2.97;;;1.15;;
24897;SDS011;12957;49.434;8.684;2023-09-19T11:30:43;4.07;;;1.60;;
24897;SDS011;12957;49.434;8.684;2023-09-19T11:43:53;2.13;;;1.40;;
24897;SDS011;12957;49.434;8.684;2023-09-19T11:46:32;2.55;;;1.30;;
24897;SDS011;12957;49.434;8.684;2023-09-19T11:49:05;2.78;;;1.20;;
24897;SDS011;12957;49.434;8.684;2023-09-19T11:51:40;1.80;;;1.42;;
24897;SDS011;12957;49.434;8.684;2023-09-19T11:54:10;6.32;;;1.75;;
24897;SDS011;12957;49.434;8.684;2023-09-19T11:56:50;4.47;;;1.30;;
24897;SDS011;12957;49.434;8.684;2023-09-19T11:59:29;3.17;;;1.70;;
24897;SDS011;12957;49.434;8.684;2023-09-19T12:02:04;3.17;;;1.35;;
24897;SDS011;12957;49.434;8.684;2023-09-19T12:07:03;3.40;;;1.55;;
24897;SDS011;12957;49.434;8.684;2023-09-19T12:09:44;1.77;;;1.40;;
24897;SDS011;12957;49.434;8.684;2023-09-19T12:12:23;2.45;;;1.40;;
24897;SDS011;12957;49.434;8.684;2023-09-19T12:14:53;2.30;;;1.38;;
24897;SDS011;12957;49.434;8.684;2023-09-19T12:17:19;4.80;;;1.70;;
24897;SDS011;12957;49.434;8.684;2023-09-19T12:19:52;3.90;;;1.60;;
24897;SDS011;12957;49.434;8.684;2023-09-19T12:22:18;2.60;;;1.33;;
24897;SDS011;12957;49.434;8.684;2023-09-19T12:24:45;4.22;;;1.65;;
24897;SDS011;12957;49.434;8.684;2023-09-19T12:27:11;3.40;;;1.42;;
24897;SDS011;12957;49.434;8.684;2023-09-19T12:29:45;3.40;;;1.60;;
24897;SDS011;12957;49.434;8.684;2023-09-19T12:32:13;4.55;;;1.60;;
24897;SDS011;12957;49.434;8.684;2023-09-19T12:34:41;3.83;;;1.48;;
24897;SDS011;12957;49.434;8.684;2023-09-19T12:37:14;8.70;;;1.58;;
24897;SDS011;12957;49.434;8.684;2023-09-19T12:39:47;3.65;;;1.50;;
24897;SDS011;12957;49.434;8.684;2023-09-19T12:42:25;3.55;;;1.48;;
24897;SDS011;12957;49.434;8.684;2023-09-19T12:44:54;2.70;;;1.27;;
24897;SDS011;12957;49.434;8.684;2023-09-19T12:47:25;7.63;;;1.60;;
24897;SDS011;12957;49.434;8.684;2023-09-19T12:50:24;4.18;;;1.73;;
24897;SDS011;12957;49.434;8.684;2023-09-19T12:52:46;1.50;;;1.40;;
24897;SDS011;12957;49.434;8.684;2023-09-19T12:55:20;2.60;;;1.40;;
24897;SDS011;12957;49.434;8.684;2023-09-19T12:57:59;3.50;;;1.30;;
24897;SDS011;12957;49.434;8.684;2023-09-19T13:00:32;4.55;;;1.75;;
24897;SDS011;12957;49.434;8.684;2023-09-19T13:05:47;4.07;;;2.08;;
24897;SDS011;12957;49.434;8.684;2023-09-19T13:08:23;3.80;;;1.50;;
24897;SDS011;12957;49.434;8.684;2023-09-19T13:11:04;8.25;;;1.52;;
24897;SDS011;12957;49.434;8.684;2023-09-19T13:13:46;1.52;;;1.42;;
24897;SDS011;12957;49.434;8.684;2023-09-19T13:16:30;1.85;;;1.20;;
24897;SDS011;12957;49.434;8.684;2023-09-19T13:18:56;1.88;;;1.38;;
24897;SDS011;12957;49.434;8.684;2023-09-19T13:21:29;5.70;;;1.80;;
24897;SDS011;12957;49.434;8.684;2023-09-19T13:24:17;4.55;;;1.50;;
24897;SDS011;12957;49.434;8.684;2023-09-19T13:26:44;1.58;;;1.48;;
24897;SDS011;12957;49.434;8.684;2023-09-19T13:29:09;3.88;;;1.38;;
24897;SDS011;12957;49.434;8.684;2023-09-19T13:31:35;5.07;;;1.60;;
24897;SDS011;12957;49.434;8.684;2023-09-19T13:34:03;3.78;;;1.50;;
24897;SDS011;12957;49.434;8.684;2023-09-19T13:36:28;4.75;;;1.73;;
24897;SDS011;12957;49.434;8.684;2023-09-19T13:38:54;2.58;;;1.38;;
24897;SDS011;12957;49.434;8.684;2023-09-19T13:41:20;2.92;;;1.60;;
24897;SDS011;12957;49.434;8.684;2023-09-19T13:43:46;5.90;;;1.63;;
24897;SDS011;12957;49.434;8.684;2023-09-19T13:46:14;3.97;;;1.60;;
24897;SDS011;12957;49.434;8.684;2023-09-19T13:48:41;3.20;;;1.50;;
24897;SDS011;12957;49.434;8.684;2023-09-19T13:51:06;6.65;;;1.70;;
24897;SDS011;12957;49.434;8.684;2023-09-19T13:53:32;4.28;;;1.40;;
24897;SDS011;12957;49.434;8.684;2023-09-19T13:55:57;4.32;;;1.38;;
24897;SDS011;12957;49.434;8.684;2023-09-19T13:58:23;1.92;;;1.50;;
24897;SDS011;12957;49.434;8.684;2023-09-19T14:00:49;2.88;;;1.35;;
24897;SDS011;12957;49.434;8.684;2023-09-19T14:03:14;1.67;;;1.27;;
24897;SDS011;12957;49.434;8.684;2023-09-19T14:05:40;2.47;;;1.58;;
24897;SDS011;12957;49.434;8.684;2023-09-19T14:08:07;2.42;;;1.30;;
24897;SDS011;12957;49.434;8.684;2023-09-19T14:10:33;3.78;;;1.20;;
24897;SDS011;12957;49.434;8.684;2023-09-19T14:13:00;2.10;;;1.45;;
24897;SDS011;12957;49.434;8.684;2023-09-19T14:15:26;1.80;;;1.23;;
24897;SDS011;12957;49.434;8.684;2023-09-19T14:17:58;7.07;;;1.40;;
24897;SDS011;12957;49.434;8.684;2023-09-19T14:20:25;1.85;;;1.40;;
24897;SDS011;12957;49.434;8.684;2023-09-19T14:22:52;5.93;;;1.58;;
24897;SDS011;12957;49.434;8.684;2023-09-19T14:25:18;1.75;;;1.33;;
24897;SDS011;12957;49.434;8.684;2023-09-19T14:27:43;1.90;;;1.20;;
24897;SDS011;12957;49.434;8.684;2023-09-19T14:30:09;2.03;;;1.38;;
24897;SDS011;12957;49.434;8.684;2023-09-19T14:32:35;2.08;;;1.23;;
24897;SDS011;12957;49.434;8.684;2023-09-19T14:35:01;1.48;;;1.38;;
24897;SDS011;12957;49.434;8.684;2023-09-19T14:37:27;3.30;;;1.17;;
24897;SDS011;12957;49.434;8.684;2023-09-19T14:39:53;1.85;;;1.38;;
24897;SDS011;12957;49.434;8.684;2023-09-19T14:42:18;3.65;;;1.42;;
24897;SDS011;12957;49.434;8.684;2023-09-19T14:44:44;4.40;;;1.30;;
24897;SDS011;12957;49.434;8.684;2023-09-19T14:47:12;2.33;;;1.35;;
24897;SDS011;12957;49.434;8.684;2023-09-19T14:49:38;3.55;;;1.30;;
24897;SDS011;12957;49.434;8.684;2023-09-19T14:52:08;2.38;;;1.20;;
24897;SDS011;12957;49.434;8.684;2023-09-19T14:54:34;5.15;;;1.52;;
24897;SDS011;12957;49.434;8.684;2023-09-19T14:57:00;2.92;;;1.25;;
24897;SDS011;12957;49.434;8.684;2023-09-19T14:59:33;2.13;;;1.30;;
24897;SDS011;12957;49.434;8.684;2023-09-19T15:02:02;7.22;;;1.50;;
24897;SDS011;12957;49.434;8.684;2023-09-19T15:04:28;3.03;;;1.25;;
24897;SDS011;12957;49.434;8.684;2023-09-19T15:06:54;2.22;;;1.10;;
24897;SDS011;12957;49.434;8.684;2023-09-19T15:09:20;5.85;;;1.40;;
24897;SDS011;12957;49.434;8.684;2023-09-19T15:11:54;2.90;;;1.02;;
24897;SDS011;12957;49.434;8.684;2023-09-19T15:14:21;1.40;;;1.30;;
24897;SDS011;12957;49.434;8.684;2023-09-19T15:16:47;1.52;;;1.08;;
24897;SDS011;12957;49.434;8.684;2023-09-19T15:19:13;1.20;;;1.10;;
24897;SDS011;12957;49.434;8.684;2023-09-19T15:21:39;2.78;;;1.48;;
24897;SDS011;12957;49.434;8.684;2023-09-19T15:24:05;2.83;;;1.60;;
24897;SDS011;12957;49.434;8.684;2023-09-19T15:26:34;4.07;;;1.40;;
24897;SDS011;12957;49.434;8.684;2023-09-19T15:29:03;4.00;;;1.40;;
24897;SDS011;12957;49.434;8.684;2023-09-19T15:31:30;2.78;;;1.05;;
24897;SDS011;12957;49.434;8.684;2023-09-19T15:33:55;1.30;;;1.20;;
24897;SDS011;12957;49.434;8.684;2023-09-19T15:36:22;6.22;;;1.58;;
24897;SDS011;12957;49.434;8.684;2023-09-19T15:38:58;6.65;;;1.67;;
24897;SDS011;12957;49.434;8.684;2023-09-19T15:41:37;1.98;;;1.25;;
24897;SDS011;12957;49.434;8.684;2023-09-19T15:44:03;2.90;;;1.35;;
24897;SDS011;12957;49.434;8.684;2023-09-19T15:46:30;3.22;;;1.27;;